LPPD Airport Information

Runway Information
Runway 12 Length 8192 ft width 148 ft
Elevation 259 ft Threshold 0 ft Heading 112
Runway 30 Length 8192 ft Width 148 ft
Elevation 187 ft Threshold 787 ft Heading 292
Airport Frequencies
Type APP Name APP Frequency 119.4 MHZ
Type TWR Name TWR Frequency 118.3 MHZ
Airport Navaids
Type NDB Name Ponta Delgada Frequency 371 KHZ
Type NDB Name Ponta Delgada Frequency 351 KHZ
Type VORTAC Name Sao Miguel Frequency 114500 KHZ
Airport Weather Information & NOTAM
ADDS - METARS form results

(1529 UTC 21 April 2018)
 
METAR text: LPPD 211500Z 36010KT 320V040 9999 BKN015 BKN030 17/14 Q1026
Conditions at: LPPD (PONTA DELGADA/NO, PT) observed 1500 UTC 21 April 2018
Temperature: 17.0°C (63°F)
Dewpoint: 14.0°C (57°F) [RH = 82%]
Pressure (altimeter): 30.30 inches Hg (1026.0 mb)
Winds: from the N (360 degrees) at 12 MPH (10 knots; 5.2 m/s)
Visibility: 6 or more miles (10+ km)
Ceiling: 1500 feet AGL
Clouds: broken clouds at 1500 feet AGL
broken clouds at 3000 feet AGL
Weather: no significant weather observed at this time

METAR text: LPPD 211430Z 36011KT 330V040 9999 BKN015 FEW020TCU 18/14 Q1026
Conditions at: LPPD (PONTA DELGADA/NO, PT) observed 1430 UTC 21 April 2018
Temperature: 18.0°C (64°F)
Dewpoint: 14.0°C (57°F) [RH = 77%]
Pressure (altimeter): 30.30 inches Hg (1026.0 mb)
Winds: from the N (360 degrees) at 13 MPH (11 knots; 5.7 m/s)
Visibility: 6 or more miles (10+ km)
Ceiling: 1500 feet AGL
Clouds: broken clouds at 1500 feet AGL
few clouds at 2000 feet AGL
Weather: no significant weather observed at this time